createdAt,value
2023-05-25T00:00:32.362Z,100.00
2023-05-25T00:03:20.858Z,100.00
2023-05-25T00:06:10.937Z,100.00
2023-05-25T00:08:43.948Z,100.00
2023-05-25T00:11:28.949Z,100.00
2023-05-25T00:14:17.455Z,100.00
2023-05-25T00:17:17.736Z,100.00
2023-05-25T00:20:46.009Z,100.00
2023-05-25T00:24:02.300Z,100.00
2023-05-25T00:27:10.419Z,100.00
2023-05-25T00:29:41.588Z,100.00
2023-05-25T00:32:50.558Z,100.00
2023-05-25T00:35:59.377Z,100.00
2023-05-25T00:38:52.596Z,100.00
2023-05-25T00:41:41.907Z,100.00
2023-05-25T00:44:50.889Z,100.00
2023-05-25T00:48:06.841Z,100.00
2023-05-25T00:51:03.072Z,100.00
2023-05-25T00:53:51.974Z,100.00
2023-05-25T00:56:41.253Z,100.00
2023-05-25T00:59:53.058Z,100.00
2023-05-25T01:03:02.284Z,100.00
2023-05-25T01:06:30.298Z,100.00
2023-05-25T01:09:03.676Z,100.00
2023-05-25T01:11:56.200Z,100.00
2023-05-25T01:14:26.323Z,100.00
2023-05-25T01:17:18.410Z,100.00
2023-05-25T01:20:16.106Z,100.00
2023-05-25T01:23:08.293Z,100.00
2023-05-25T01:25:48.610Z,100.00
2023-05-25T01:28:57.975Z,100.00
2023-05-25T01:31:47.611Z,100.00
2023-05-25T01:34:56.496Z,100.00
2023-05-25T01:37:50.019Z,100.00
2023-05-25T01:40:33.849Z,100.00
2023-05-25T01:43:41.874Z,100.00
2023-05-25T01:46:57.530Z,100.00
2023-05-25T01:50:25.706Z,100.00
2023-05-25T01:53:54.819Z,100.00
2023-05-25T01:56:23.980Z,100.00
2023-05-25T01:59:32.684Z,100.00
2023-05-25T02:02:28.681Z,100.00
2023-05-25T02:05:37.013Z,100.00
2023-05-25T02:08:29.838Z,100.00
2023-05-25T02:11:35.632Z,100.00
2023-05-25T02:15:04.048Z,100.00
2023-05-25T02:17:53.306Z,100.00
2023-05-25T02:21:21.961Z,100.00
2023-05-25T02:24:30.125Z,100.00
2023-05-25T02:27:33.755Z,100.00
2023-05-25T02:30:09.544Z,100.00
2023-05-25T02:32:40.325Z,100.00
2023-05-25T02:36:09.363Z,100.00
2023-05-25T02:39:18.733Z,100.00
2023-05-25T02:42:44.356Z,100.00
2023-05-25T02:46:08.235Z,100.00
2023-05-25T02:48:44.425Z,100.00
2023-05-25T02:51:54.261Z,100.00
2023-05-25T02:54:46.608Z,100.00
2023-05-25T02:58:14.796Z,100.00
2023-05-25T03:01:48.689Z,100.00
2023-05-25T03:04:24.436Z,100.00
2023-05-25T03:07:33.270Z,100.00
2023-05-25T03:10:10.744Z,100.00
2023-05-25T03:13:26.924Z,100.00
2023-05-25T03:16:16.842Z,100.00
2023-05-25T03:19:27.274Z,100.00
2023-05-25T03:21:59.894Z,100.00
2023-05-25T03:24:50.569Z,100.00
2023-05-25T03:27:20.654Z,100.00
2023-05-25T03:30:13.353Z,100.00
2023-05-25T03:32:59.206Z,100.00
2023-05-25T03:35:35.884Z,100.00
2023-05-25T03:38:51.929Z,100.00
2023-05-25T03:42:07.609Z,100.00
2023-05-25T03:44:56.740Z,100.00
2023-05-25T03:48:05.659Z,100.00
2023-05-25T03:51:16.389Z,100.00
2023-05-25T03:54:20.481Z,100.00
2023-05-25T03:57:48.645Z,100.00
2023-05-25T04:00:37.766Z,100.00
2023-05-25T04:04:01.078Z,100.00
2023-05-25T04:06:32.073Z,100.00
2023-05-25T04:09:22.846Z,100.00
2023-05-25T04:12:12.132Z,100.00
2023-05-25T04:15:40.112Z,100.00
2023-05-25T04:18:14.483Z,100.00
2023-05-25T04:21:03.821Z,100.00
2023-05-25T04:24:12.298Z,100.00
2023-05-25T04:27:09.297Z,100.00
2023-05-25T04:30:21.803Z,100.00
2023-05-25T04:33:36.093Z,100.00
2023-05-25T04:36:19.504Z,100.00
2023-05-25T04:38:56.266Z,100.00
2023-05-25T04:42:05.973Z,100.00
2023-05-25T04:45:14.434Z,100.00
2023-05-25T04:48:05.548Z,100.00
2023-05-25T04:50:54.561Z,100.00
2023-05-25T04:54:02.730Z,100.00
2023-05-25T04:56:31.724Z,100.00
2023-05-25T04:59:18.372Z,100.00
2023-05-25T05:01:51.263Z,100.00
2023-05-25T05:04:51.470Z,100.00
2023-05-25T05:08:03.113Z,100.00
2023-05-25T05:10:34.228Z,100.00
2023-05-25T05:13:42.714Z,100.00
2023-05-25T05:16:38.690Z,100.00
2023-05-25T05:19:46.862Z,100.00
2023-05-25T05:22:16.637Z,100.00
2023-05-25T05:24:50.043Z,100.00
2023-05-25T05:27:42.555Z,100.00
2023-05-25T05:30:32.260Z,100.00
2023-05-25T05:33:21.523Z,100.00
2023-05-25T05:35:51.891Z,100.00
2023-05-25T05:38:49.344Z,100.00
2023-05-25T05:41:45.864Z,100.00
2023-05-25T05:44:44.342Z,100.00
2023-05-25T05:47:29.636Z,100.00
2023-05-25T05:50:19.573Z,100.00
2023-05-25T05:53:00.393Z,100.00
2023-05-25T05:55:32.490Z,100.00
2023-05-25T05:58:24.696Z,100.00
2023-05-25T06:01:18.969Z,99.88
2023-05-25T06:04:08.333Z,99.63
2023-05-25T06:06:41.270Z,99.09
2023-05-25T06:09:11.626Z,99.29
2023-05-25T06:12:21.451Z,99.27
2023-05-25T06:15:19.067Z,99.06
2023-05-25T06:17:57.682Z,98.31
2023-05-25T06:20:47.113Z,99.45
2023-05-25T06:23:15.419Z,98.66
2023-05-25T06:26:23.292Z,98.52
2023-05-25T06:29:15.386Z,98.46
2023-05-25T06:31:48.902Z,97.73
2023-05-25T06:34:44.732Z,97.21
2023-05-25T06:37:38.029Z,95.58
2023-05-25T06:41:06.273Z,95.26
2023-05-25T06:44:17.578Z,94.79
2023-05-25T06:47:41.528Z,94.36
2023-05-25T06:51:10.237Z,95.09
2023-05-25T06:54:18.659Z,95.48
2023-05-25T06:57:33.043Z,95.47
2023-05-25T07:00:44.801Z,94.19
2023-05-25T07:03:47.178Z,94.68
2023-05-25T07:07:16.497Z,94.52
2023-05-25T07:10:23.896Z,94.92
2023-05-25T07:13:14.142Z,94.66
2023-05-25T07:16:04.138Z,94.97
2023-05-25T07:18:40.066Z,94.91
2023-05-25T07:21:14.981Z,94.25
2023-05-25T07:23:44.568Z,94.74
2023-05-25T07:26:20.835Z,96.19
2023-05-25T07:29:29.165Z,96.50
2023-05-25T07:31:57.935Z,96.38
2023-05-25T07:35:02.074Z,96.55
2023-05-25T07:37:33.995Z,95.95
2023-05-25T07:40:24.269Z,95.83
2023-05-25T07:43:32.502Z,95.10
2023-05-25T07:46:28.705Z,92.08
2023-05-25T07:49:04.935Z,91.75
2023-05-25T07:51:34.130Z,92.64
2023-05-25T07:54:15.506Z,92.40
2023-05-25T07:57:07.585Z,91.12
2023-05-25T07:59:37.967Z,89.82
2023-05-25T08:02:26.589Z,89.63
2023-05-25T08:05:00.976Z,89.71
2023-05-25T08:07:53.494Z,89.99
2023-05-25T08:10:22.926Z,90.12
2023-05-25T08:13:11.807Z,90.78
2023-05-25T08:16:20.742Z,90.10
2023-05-25T08:19:04.823Z,90.90
2023-05-25T08:22:09.122Z,91.23
2023-05-25T08:24:44.074Z,90.85
2023-05-25T08:27:36.872Z,90.61
2023-05-25T08:30:45.583Z,91.80
2023-05-25T08:33:34.743Z,89.93
2023-05-25T08:36:42.759Z,90.11
2023-05-25T08:39:26.105Z,90.36
2023-05-25T08:41:54.213Z,90.36
2023-05-25T08:44:23.532Z,89.29
2023-05-25T08:46:51.900Z,88.51
2023-05-25T08:49:20.453Z,87.02
2023-05-25T08:51:48.549Z,83.63
2023-05-25T08:54:16.690Z,82.12
2023-05-25T08:56:45.136Z,83.18
2023-05-25T08:59:15.122Z,83.04
2023-05-25T09:01:43.170Z,82.21
2023-05-25T09:04:11.691Z,81.91
2023-05-25T09:06:39.779Z,82.92
2023-05-25T09:09:07.891Z,82.82
2023-05-25T09:11:40.489Z,80.49
2023-05-25T09:14:10.285Z,79.30
2023-05-25T09:16:41.283Z,79.79
2023-05-25T09:19:30.549Z,81.32
2023-05-25T09:22:20.513Z,82.93
2023-05-25T09:24:50.438Z,81.48
2023-05-25T09:27:18.960Z,79.54
2023-05-25T09:29:47.360Z,79.00
2023-05-25T09:32:15.870Z,79.10
2023-05-25T09:34:44.327Z,78.30
2023-05-25T09:37:13.144Z,78.56
2023-05-25T09:39:42.191Z,79.33
2023-05-25T09:42:10.316Z,76.68
2023-05-25T09:44:38.625Z,76.64
2023-05-25T09:47:07.292Z,75.64
2023-05-25T09:49:35.889Z,74.73
2023-05-25T09:52:06.040Z,75.52
2023-05-25T09:54:33.984Z,73.38
2023-05-25T09:57:10.242Z,72.62
2023-05-25T09:59:39.363Z,69.94
2023-05-25T10:02:08.172Z,69.57
2023-05-25T10:04:37.331Z,70.27
2023-05-25T10:07:46.584Z,67.97
2023-05-25T10:10:54.809Z,68.41
2023-05-25T10:14:10.919Z,68.45
2023-05-25T10:17:19.890Z,67.80
2023-05-25T10:20:47.933Z,67.22
2023-05-25T10:23:37.329Z,65.30
2023-05-25T10:27:18.563Z,66.01
2023-05-25T10:30:33.454Z,67.76
2023-05-25T10:33:43.919Z,68.70
2023-05-25T10:37:11.308Z,66.72
2023-05-25T10:40:39.690Z,65.29
2023-05-25T10:44:07.562Z,66.20
2023-05-25T10:47:35.661Z,62.85
2023-05-25T10:51:03.803Z,60.94
2023-05-25T10:54:32.190Z,56.92
2023-05-25T10:58:00.211Z,58.96
2023-05-25T11:01:28.525Z,58.86
2023-05-25T11:04:56.520Z,57.94
2023-05-25T11:08:09.213Z,55.70
2023-05-25T11:11:37.461Z,58.05
2023-05-25T11:15:05.539Z,57.18
2023-05-25T11:18:33.809Z,55.95
2023-05-25T11:22:01.750Z,56.58
2023-05-25T11:25:29.826Z,57.04
2023-05-25T11:28:57.828Z,57.39
2023-05-25T11:31:25.849Z,55.07
2023-05-25T11:33:54.224Z,54.52
2023-05-25T11:36:22.106Z,55.00
2023-05-25T11:39:02.556Z,55.60
2023-05-25T11:41:35.144Z,55.67
2023-05-25T11:44:03.729Z,54.15
2023-05-25T11:46:32.770Z,54.12
2023-05-25T11:49:00.837Z,52.51
2023-05-25T11:51:28.761Z,52.05
2023-05-25T11:53:56.666Z,49.60
2023-05-25T11:56:35.238Z,48.91
2023-05-25T11:59:06.120Z,49.97
2023-05-25T12:01:34.014Z,50.19
2023-05-25T12:04:02.908Z,51.12
2023-05-25T12:06:31.154Z,50.64
2023-05-25T12:08:59.217Z,49.02
2023-05-25T12:11:28.225Z,47.86
2023-05-25T12:13:56.439Z,46.28
2023-05-25T12:16:25.534Z,46.99
2023-05-25T12:18:53.893Z,47.16
2023-05-25T12:21:21.797Z,47.21
2023-05-25T12:23:50.122Z,47.32
2023-05-25T12:26:21.952Z,46.78
2023-05-25T12:28:50.629Z,46.75
2023-05-25T12:31:21.701Z,46.84
2023-05-25T12:33:52.793Z,46.43
2023-05-25T12:36:31.885Z,46.28
2023-05-25T12:39:00.050Z,46.52
2023-05-25T12:41:29.396Z,46.62
2023-05-25T12:43:59.292Z,47.08
2023-05-25T12:46:28.412Z,47.82
2023-05-25T12:48:58.085Z,50.37
2023-05-25T12:51:26.906Z,51.50
2023-05-25T12:54:15.862Z,52.87
2023-05-25T12:57:07.499Z,54.23
2023-05-25T13:00:03.278Z,54.65
2023-05-25T13:02:52.661Z,55.44
2023-05-25T13:05:27.322Z,55.81
2023-05-25T13:07:55.739Z,55.42
2023-05-25T13:10:25.872Z,55.86
2023-05-25T13:12:56.942Z,56.27
2023-05-25T13:15:43.061Z,55.45
2023-05-25T13:18:32.797Z,55.56
2023-05-25T13:21:01.626Z,55.32
2023-05-25T13:23:31.201Z,55.61
2023-05-25T13:26:01.953Z,56.61
2023-05-25T13:28:46.483Z,57.61
2023-05-25T13:31:39.294Z,58.79
2023-05-25T13:34:27.801Z,58.93
2023-05-25T13:36:58.943Z,59.05
2023-05-25T13:39:28.318Z,58.38
2023-05-25T13:42:18.368Z,58.11
2023-05-25T13:44:50.309Z,57.30
2023-05-25T13:47:19.722Z,53.50
2023-05-25T13:49:54.054Z,51.01
2023-05-25T13:52:22.148Z,49.33
2023-05-25T13:55:15.085Z,48.00
2023-05-25T13:58:20.609Z,46.65
2023-05-25T14:00:50.537Z,45.48
2023-05-25T14:03:23.213Z,44.52
2023-05-25T14:06:11.373Z,43.02
2023-05-25T14:08:39.441Z,42.98
2023-05-25T14:11:08.984Z,42.93
2023-05-25T14:13:39.768Z,41.54
2023-05-25T14:16:10.323Z,39.74
2023-05-25T14:18:40.314Z,39.44
2023-05-25T14:21:08.313Z,39.52
2023-05-25T14:23:43.494Z,40.80
2023-05-25T14:26:11.917Z,41.44
2023-05-25T14:28:40.201Z,40.80
2023-05-25T14:31:09.267Z,40.34
2023-05-25T14:33:38.036Z,39.52
2023-05-25T14:36:06.724Z,38.94
2023-05-25T14:38:35.058Z,38.15
2023-05-25T14:41:03.828Z,37.97
2023-05-25T14:43:32.707Z,37.71
2023-05-25T14:46:01.268Z,35.70
2023-05-25T14:48:30.048Z,34.64
2023-05-25T14:51:01.425Z,34.76
2023-05-25T14:53:32.423Z,34.41
2023-05-25T14:56:00.685Z,33.82
2023-05-25T14:58:28.699Z,34.22
2023-05-25T15:00:57.298Z,33.30
2023-05-25T15:03:26.218Z,33.91
2023-05-25T15:06:18.658Z,34.16
2023-05-25T15:08:48.290Z,34.51
2023-05-25T15:11:17.768Z,34.66
2023-05-25T15:13:45.655Z,34.79
2023-05-25T15:16:16.704Z,35.79
2023-05-25T15:18:47.729Z,36.29
2023-05-25T15:21:24.460Z,35.79
2023-05-25T15:23:53.750Z,35.79
2023-05-25T15:26:31.303Z,35.51
2023-05-25T15:29:00.572Z,35.28
2023-05-25T15:31:29.326Z,33.97
2023-05-25T15:34:01.521Z,34.85
2023-05-25T15:36:30.634Z,36.88
2023-05-25T15:39:02.808Z,39.48
2023-05-25T15:41:31.731Z,41.51
2023-05-25T15:44:01.734Z,42.05
2023-05-25T15:46:31.341Z,40.98
2023-05-25T15:49:02.297Z,40.48
2023-05-25T15:51:31.164Z,41.39
2023-05-25T15:54:20.373Z,42.57
2023-05-25T15:56:51.317Z,43.02
2023-05-25T15:59:41.023Z,42.08
2023-05-25T16:02:12.418Z,41.01
2023-05-25T16:04:41.795Z,40.01
2023-05-25T16:07:10.518Z,39.14
2023-05-25T16:09:40.608Z,38.01
2023-05-25T16:12:09.662Z,37.10
2023-05-25T16:14:39.961Z,37.02
2023-05-25T16:17:10.179Z,38.80
2023-05-25T16:20:14.306Z,40.18
2023-05-25T16:22:42.433Z,41.49
2023-05-25T16:25:11.535Z,43.05
2023-05-25T16:27:40.626Z,43.78
2023-05-25T16:30:34.445Z,46.26
2023-05-25T16:33:04.337Z,47.36
2023-05-25T16:35:53.764Z,49.32
2023-05-25T16:38:23.086Z,49.82
2023-05-25T16:41:11.749Z,51.55
2023-05-25T16:43:56.788Z,52.39
2023-05-25T16:46:31.949Z,53.08
2023-05-25T16:49:03.143Z,53.54
2023-05-25T16:51:33.314Z,54.71
2023-05-25T16:54:24.243Z,55.77
2023-05-25T16:57:12.692Z,55.09
2023-05-25T17:00:05.704Z,56.73
2023-05-25T17:03:01.589Z,56.40
2023-05-25T17:05:37.492Z,58.50
2023-05-25T17:08:07.461Z,58.65
2023-05-25T17:10:44.689Z,60.42
2023-05-25T17:13:22.043Z,58.84
2023-05-25T17:15:55.471Z,58.29
2023-05-25T17:18:24.406Z,57.49
2023-05-25T17:21:17.686Z,56.93
2023-05-25T17:24:02.233Z,57.11
2023-05-25T17:27:09.483Z,57.18
2023-05-25T17:30:00.404Z,57.29
2023-05-25T17:32:48.943Z,58.15
2023-05-25T17:35:21.005Z,58.67
2023-05-25T17:37:54.059Z,59.19
2023-05-25T17:40:43.366Z,59.34
2023-05-25T17:43:13.070Z,59.73
2023-05-25T17:45:46.321Z,59.81
2023-05-25T17:48:15.438Z,59.97
2023-05-25T17:50:49.105Z,60.11
2023-05-25T17:53:36.422Z,60.25
2023-05-25T17:56:07.047Z,60.41
2023-05-25T17:58:44.878Z,61.13
2023-05-25T18:01:34.043Z,60.99
2023-05-25T18:04:10.465Z,61.09
2023-05-25T18:07:08.408Z,61.57
2023-05-25T18:09:36.621Z,61.87
2023-05-25T18:12:22.470Z,62.04
2023-05-25T18:15:05.956Z,62.55
2023-05-25T18:17:54.017Z,62.88
2023-05-25T18:20:38.019Z,63.47
2023-05-25T18:23:27.161Z,63.36
2023-05-25T18:25:56.376Z,63.13
2023-05-25T18:28:31.966Z,63.92
2023-05-25T18:31:21.716Z,64.19
2023-05-25T18:33:52.115Z,63.96
2023-05-25T18:36:28.188Z,64.70
2023-05-25T18:39:18.360Z,64.95
2023-05-25T18:41:51.090Z,64.82
2023-05-25T18:44:19.853Z,65.09
2023-05-25T18:46:50.225Z,64.87
2023-05-25T18:49:36.347Z,65.11
2023-05-25T18:52:25.196Z,66.79
2023-05-25T18:54:53.506Z,66.55
2023-05-25T18:57:39.198Z,67.34
2023-05-25T19:00:47.556Z,67.16
2023-05-25T19:03:58.148Z,67.83
2023-05-25T19:06:46.869Z,69.40
2023-05-25T19:09:39.128Z,68.48
2023-05-25T19:12:08.416Z,69.42
2023-05-25T19:14:52.482Z,69.10
2023-05-25T19:17:22.709Z,68.90
2023-05-25T19:20:31.097Z,68.95
2023-05-25T19:23:03.380Z,69.71
2023-05-25T19:25:36.051Z,69.89
2023-05-25T19:28:07.755Z,70.91
2023-05-25T19:30:40.552Z,71.17
2023-05-25T19:33:10.390Z,70.25
2023-05-25T19:36:06.798Z,72.92
2023-05-25T19:39:19.178Z,73.37
2023-05-25T19:41:50.956Z,72.81
2023-05-25T19:44:44.244Z,74.37
2023-05-25T19:47:33.064Z,74.49
2023-05-25T19:50:41.065Z,75.10
2023-05-25T19:53:30.920Z,74.20
2023-05-25T19:56:01.521Z,73.94
2023-05-25T19:58:30.228Z,73.60
2023-05-25T20:01:14.580Z,76.02
2023-05-25T20:04:04.406Z,76.24
2023-05-25T20:06:52.941Z,76.43
2023-05-25T20:10:04.937Z,76.16
2023-05-25T20:12:42.765Z,75.66
2023-05-25T20:16:10.868Z,76.25
2023-05-25T20:19:06.787Z,75.87
2023-05-25T20:22:01.014Z,76.46
2023-05-25T20:24:51.270Z,76.12
2023-05-25T20:28:07.158Z,75.96
2023-05-25T20:30:35.352Z,76.02
2023-05-25T20:33:05.640Z,76.73
2023-05-25T20:35:54.563Z,76.48
2023-05-25T20:38:25.105Z,76.50
2023-05-25T20:40:57.891Z,76.67
2023-05-25T20:44:01.375Z,76.45
2023-05-25T20:46:30.587Z,76.64
2023-05-25T20:49:20.576Z,76.94
2023-05-25T20:52:21.378Z,77.20
2023-05-25T20:55:26.949Z,77.22
2023-05-25T20:58:21.124Z,77.59
2023-05-25T21:00:55.881Z,77.79
2023-05-25T21:03:46.548Z,77.96
2023-05-25T21:06:58.853Z,77.86
2023-05-25T21:09:48.050Z,78.38
2023-05-25T21:13:04.408Z,78.75
2023-05-25T21:15:57.610Z,79.04
2023-05-25T21:18:30.588Z,79.22
2023-05-25T21:20:58.857Z,79.37
2023-05-25T21:23:40.384Z,79.34
2023-05-25T21:26:30.054Z,80.03
2023-05-25T21:29:19.069Z,80.84
2023-05-25T21:32:12.389Z,80.71
2023-05-25T21:34:44.237Z,80.78
2023-05-25T21:37:32.727Z,81.05
2023-05-25T21:40:41.630Z,81.25
2023-05-25T21:44:05.383Z,81.61
2023-05-25T21:47:13.477Z,81.53
2023-05-25T21:50:02.492Z,81.74
2023-05-25T21:52:32.058Z,82.16
2023-05-25T21:56:00.351Z,83.20
2023-05-25T21:58:45.674Z,84.21
2023-05-25T22:01:34.451Z,84.49
2023-05-25T22:04:42.729Z,85.29
2023-05-25T22:07:54.137Z,85.68
2023-05-25T22:10:29.226Z,85.08
2023-05-25T22:13:18.442Z,85.52
2023-05-25T22:16:46.480Z,86.40
2023-05-25T22:20:07.321Z,88.34
2023-05-25T22:22:51.026Z,88.73
2023-05-25T22:25:58.357Z,89.03
2023-05-25T22:28:49.929Z,89.54
2023-05-25T22:31:23.785Z,92.23
2023-05-25T22:34:33.076Z,95.05
2023-05-25T22:37:04.185Z,92.36
2023-05-25T22:39:54.648Z,91.70
2023-05-25T22:43:10.316Z,93.30
2023-05-25T22:46:10.160Z,94.17
2023-05-25T22:48:59.553Z,96.66
2023-05-25T22:51:56.970Z,98.18
2023-05-25T22:55:20.141Z,96.97
2023-05-25T22:58:28.131Z,97.25
2023-05-25T23:01:36.406Z,99.43
2023-05-25T23:04:12.159Z,99.64
2023-05-25T23:07:35.452Z,100.00
2023-05-25T23:10:19.816Z,100.00
2023-05-25T23:13:04.863Z,100.00
2023-05-25T23:15:33.366Z,100.00
2023-05-25T23:18:26.290Z,100.00
2023-05-25T23:21:38.043Z,100.00
2023-05-25T23:24:08.701Z,100.00
2023-05-25T23:27:36.757Z,100.00
2023-05-25T23:30:27.126Z,100.00
2023-05-25T23:33:55.537Z,100.00
2023-05-25T23:36:47.781Z,100.00
2023-05-25T23:39:36.812Z,100.00
2023-05-25T23:42:27.801Z,100.00
2023-05-25T23:45:04.733Z,100.00
2023-05-25T23:47:38.904Z,100.00
2023-05-25T23:50:47.293Z,100.00
2023-05-25T23:53:55.937Z,100.00
2023-05-25T23:56:44.594Z,100.00
2023-05-25T23:59:36.859Z,100.00
